Arroyo, Texas
Current Conditions -  °F | °C
As of 3:52 AM on Wednesday 22 Oct 2014 (Local Time) from KHRL Reporting Station
Clear Clear  
Wind Chill: 72°   Ceiling: Unl
Heat Index: 72°   Visibility: 10mi
Dew Point: 70°   Wind: 7mph
Humidity: 93%   Direction: 40°NE
Pressure: 29.92"   Gusts: NA
Location:  26.2089°N, 97.6849°W
Report Text: KHRL 220852Z AUTO 04006KT 10SM CLR 22/21 A2992 RMK AO2 SLP132 P0001 60003 T02220211 56008
Loading
Personal Weather Stations






























Interactive Weather Map New forecast layout! Learn more

10-Day Weather Forecast

Advertisements
Track Severe Weather on mobile